sensor_id;sensor_type;location;lat;lon;timestamp;temperature;humidity
5218;DHT22;26539;51.064;6.346;2023-04-15T00:00:15;9.30;99.90
5218;DHT22;26539;51.064;6.346;2023-04-15T00:02:41;9.20;99.90
5218;DHT22;26539;51.064;6.346;2023-04-15T00:05:07;9.20;99.90
5218;DHT22;26539;51.064;6.346;2023-04-15T00:07:32;9.20;99.90
5218;DHT22;26539;51.064;6.346;2023-04-15T00:09:58;9.10;99.90
5218;DHT22;26539;51.064;6.346;2023-04-15T00:12:24;9.10;99.90
5218;DHT22;26539;51.064;6.346;2023-04-15T00:14:50;9.00;99.90
5218;DHT22;26539;51.064;6.346;2023-04-15T00:17:16;9.00;99.90
5218;DHT22;26539;51.064;6.346;2023-04-15T00:19:42;9.00;99.90
5218;DHT22;26539;51.064;6.346;2023-04-15T00:22:09;8.90;99.90
5218;DHT22;26539;51.064;6.346;2023-04-15T00:24:34;8.80;99.90
5218;DHT22;26539;51.064;6.346;2023-04-15T00:27:00;8.70;99.90
5218;DHT22;26539;51.064;6.346;2023-04-15T00:29:25;8.70;99.90
5218;DHT22;26539;51.064;6.346;2023-04-15T00:31:51;8.60;99.90
5218;DHT22;26539;51.064;6.346;2023-04-15T00:34:17;8.50;99.90
5218;DHT22;26539;51.064;6.346;2023-04-15T00:36:43;8.50;99.90
5218;DHT22;26539;51.064;6.346;2023-04-15T00:39:08;8.50;99.90
5218;DHT22;26539;51.064;6.346;2023-04-15T00:41:34;8.60;99.90
5218;DHT22;26539;51.064;6.346;2023-04-15T00:44:04;8.50;99.90
5218;DHT22;26539;51.064;6.346;2023-04-15T00:46:30;8.50;99.90
5218;DHT22;26539;51.064;6.346;2023-04-15T00:48:56;8.50;99.90
5218;DHT22;26539;51.064;6.346;2023-04-15T00:51:21;8.50;99.90
5218;DHT22;26539;51.064;6.346;2023-04-15T00:53:47;8.50;99.90
5218;DHT22;26539;51.064;6.346;2023-04-15T00:56:13;8.50;99.90
5218;DHT22;26539;51.064;6.346;2023-04-15T00:58:38;8.50;99.90
5218;DHT22;26539;51.064;6.346;2023-04-15T01:01:04;8.50;99.90
5218;DHT22;26539;51.064;6.346;2023-04-15T01:03:30;8.50;99.90
5218;DHT22;26539;51.064;6.346;2023-04-15T01:05:55;8.40;99.90
5218;DHT22;26539;51.064;6.346;2023-04-15T01:08:27;8.40;99.90
5218;DHT22;26539;51.064;6.346;2023-04-15T01:10:55;8.30;99.90
5218;DHT22;26539;51.064;6.346;2023-04-15T01:13:23;8.30;99.90
5218;DHT22;26539;51.064;6.346;2023-04-15T01:15:49;8.20;99.90
5218;DHT22;26539;51.064;6.346;2023-04-15T01:18:16;8.20;99.90
5218;DHT22;26539;51.064;6.346;2023-04-15T01:20:42;8.20;99.90
5218;DHT22;26539;51.064;6.346;2023-04-15T01:23:07;8.20;99.90
5218;DHT22;26539;51.064;6.346;2023-04-15T01:25:34;8.10;99.90
5218;DHT22;26539;51.064;6.346;2023-04-15T01:27:59;8.10;99.90
5218;DHT22;26539;51.064;6.346;2023-04-15T01:30:25;8.00;99.90
5218;DHT22;26539;51.064;6.346;2023-04-15T01:32:52;8.00;99.90
5218;DHT22;26539;51.064;6.346;2023-04-15T01:35:18;8.00;99.90
5218;DHT22;26539;51.064;6.346;2023-04-15T01:37:44;8.00;99.90
5218;DHT22;26539;51.064;6.346;2023-04-15T01:40:09;8.00;99.90
5218;DHT22;26539;51.064;6.346;2023-04-15T01:42:36;7.90;99.90
5218;DHT22;26539;51.064;6.346;2023-04-15T01:45:02;7.90;99.90
5218;DHT22;26539;51.064;6.346;2023-04-15T01:47:27;7.90;99.90
5218;DHT22;26539;51.064;6.346;2023-04-15T01:49:53;7.90;99.90
5218;DHT22;26539;51.064;6.346;2023-04-15T01:52:18;7.90;99.90
5218;DHT22;26539;51.064;6.346;2023-04-15T01:54:44;7.90;99.90
5218;DHT22;26539;51.064;6.346;2023-04-15T01:57:10;7.90;99.90
5218;DHT22;26539;51.064;6.346;2023-04-15T01:59:35;7.90;99.90
5218;DHT22;26539;51.064;6.346;2023-04-15T02:02:01;7.90;99.90
5218;DHT22;26539;51.064;6.346;2023-04-15T02:04:27;7.80;99.90
5218;DHT22;26539;51.064;6.346;2023-04-15T02:06:53;7.80;99.90
5218;DHT22;26539;51.064;6.346;2023-04-15T02:09:18;7.80;99.90
5218;DHT22;26539;51.064;6.346;2023-04-15T02:11:44;7.80;99.90
5218;DHT22;26539;51.064;6.346;2023-04-15T02:14:10;7.70;99.90
5218;DHT22;26539;51.064;6.346;2023-04-15T02:16:36;7.70;99.90
5218;DHT22;26539;51.064;6.346;2023-04-15T02:19:01;7.70;99.90
5218;DHT22;26539;51.064;6.346;2023-04-15T02:21:28;7.70;99.90
5218;DHT22;26539;51.064;6.346;2023-04-15T02:23:54;7.80;99.90
5218;DHT22;26539;51.064;6.346;2023-04-15T02:26:20;7.80;1.00
5218;DHT22;26539;51.064;6.346;2023-04-15T02:28:47;7.70;1.00
5218;DHT22;26539;51.064;6.346;2023-04-15T02:31:13;7.70;1.00
5218;DHT22;26539;51.064;6.346;2023-04-15T02:33:38;7.70;1.00
5218;DHT22;26539;51.064;6.346;2023-04-15T02:36:04;7.60;1.00
5218;DHT22;26539;51.064;6.346;2023-04-15T02:38:30;7.60;1.00
5218;DHT22;26539;51.064;6.346;2023-04-15T02:40:59;7.60;1.00
5218;DHT22;26539;51.064;6.346;2023-04-15T02:43:24;7.60;1.00
5218;DHT22;26539;51.064;6.346;2023-04-15T02:45:50;7.60;1.00
5218;DHT22;26539;51.064;6.346;2023-04-15T02:48:16;7.60;1.00
5218;DHT22;26539;51.064;6.346;2023-04-15T02:50:44;7.60;1.00
5218;DHT22;26539;51.064;6.346;2023-04-15T02:53:10;7.60;1.00
5218;DHT22;26539;51.064;6.346;2023-04-15T02:55:36;7.50;1.00
5218;DHT22;26539;51.064;6.346;2023-04-15T02:58:01;7.50;1.00
5218;DHT22;26539;51.064;6.346;2023-04-15T03:00:27;7.50;1.00
5218;DHT22;26539;51.064;6.346;2023-04-15T03:03:06;7.40;1.00
5218;DHT22;26539;51.064;6.346;2023-04-15T03:05:32;7.40;1.00
5218;DHT22;26539;51.064;6.346;2023-04-15T03:07:57;7.40;1.00
5218;DHT22;26539;51.064;6.346;2023-04-15T03:10:23;7.40;1.00
5218;DHT22;26539;51.064;6.346;2023-04-15T03:12:48;7.30;1.00
5218;DHT22;26539;51.064;6.346;2023-04-15T03:15:14;7.30;1.00
5218;DHT22;26539;51.064;6.346;2023-04-15T03:17:39;7.20;1.00
5218;DHT22;26539;51.064;6.346;2023-04-15T03:20:06;7.10;1.00
5218;DHT22;26539;51.064;6.346;2023-04-15T03:22:32;7.10;1.00
5218;DHT22;26539;51.064;6.346;2023-04-15T03:24:57;7.10;1.00
5218;DHT22;26539;51.064;6.346;2023-04-15T03:27:23;7.00;1.00
5218;DHT22;26539;51.064;6.346;2023-04-15T03:29:49;7.00;1.00
5218;DHT22;26539;51.064;6.346;2023-04-15T03:32:15;7.00;1.00
5218;DHT22;26539;51.064;6.346;2023-04-15T03:34:41;7.00;1.00
5218;DHT22;26539;51.064;6.346;2023-04-15T03:37:06;7.00;1.00
5218;DHT22;26539;51.064;6.346;2023-04-15T03:39:35;7.00;1.00
5218;DHT22;26539;51.064;6.346;2023-04-15T03:42:01;6.90;1.00
5218;DHT22;26539;51.064;6.346;2023-04-15T03:44:27;6.90;1.00
5218;DHT22;26539;51.064;6.346;2023-04-15T03:46:53;6.80;1.00
5218;DHT22;26539;51.064;6.346;2023-04-15T03:49:19;6.80;1.00
5218;DHT22;26539;51.064;6.346;2023-04-15T03:51:44;6.80;1.00
5218;DHT22;26539;51.064;6.346;2023-04-15T03:54:10;6.70;1.00
5218;DHT22;26539;51.064;6.346;2023-04-15T03:56:37;6.60;1.00
5218;DHT22;26539;51.064;6.346;2023-04-15T03:59:02;6.60;1.00
5218;DHT22;26539;51.064;6.346;2023-04-15T04:01:28;6.60;1.00
5218;DHT22;26539;51.064;6.346;2023-04-15T04:03:54;6.50;1.00
5218;DHT22;26539;51.064;6.346;2023-04-15T04:06:19;6.50;1.00
5218;DHT22;26539;51.064;6.346;2023-04-15T04:08:45;6.50;1.00
5218;DHT22;26539;51.064;6.346;2023-04-15T04:11:10;6.50;1.00
5218;DHT22;26539;51.064;6.346;2023-04-15T04:13:36;6.50;1.00
5218;DHT22;26539;51.064;6.346;2023-04-15T04:16:02;6.50;1.00
5218;DHT22;26539;51.064;6.346;2023-04-15T04:18:29;6.50;1.00
5218;DHT22;26539;51.064;6.346;2023-04-15T04:20:55;6.50;1.00
5218;DHT22;26539;51.064;6.346;2023-04-15T04:23:21;6.50;1.00
5218;DHT22;26539;51.064;6.346;2023-04-15T04:25:46;6.50;1.00
5218;DHT22;26539;51.064;6.346;2023-04-15T04:28:12;6.50;1.00
5218;DHT22;26539;51.064;6.346;2023-04-15T04:30:37;6.40;1.00
5218;DHT22;26539;51.064;6.346;2023-04-15T04:33:03;6.40;1.00
5218;DHT22;26539;51.064;6.346;2023-04-15T04:35:29;6.50;1.00
5218;DHT22;26539;51.064;6.346;2023-04-15T04:37:54;6.40;1.00
5218;DHT22;26539;51.064;6.346;2023-04-15T04:40:20;6.40;1.00
5218;DHT22;26539;51.064;6.346;2023-04-15T04:42:46;6.40;1.00
5218;DHT22;26539;51.064;6.346;2023-04-15T04:45:12;6.40;1.00
5218;DHT22;26539;51.064;6.346;2023-04-15T04:47:37;6.40;1.00
5218;DHT22;26539;51.064;6.346;2023-04-15T04:50:03;6.40;1.00
5218;DHT22;26539;51.064;6.346;2023-04-15T04:52:29;6.40;1.00
5218;DHT22;26539;51.064;6.346;2023-04-15T04:54:54;6.40;1.00
5218;DHT22;26539;51.064;6.346;2023-04-15T04:57:20;6.50;1.00
5218;DHT22;26539;51.064;6.346;2023-04-15T04:59:45;6.60;1.00
5218;DHT22;26539;51.064;6.346;2023-04-15T05:02:11;6.60;1.00
5218;DHT22;26539;51.064;6.346;2023-04-15T05:04:36;6.70;1.00
5218;DHT22;26539;51.064;6.346;2023-04-15T05:07:02;6.80;1.00
5218;DHT22;26539;51.064;6.346;2023-04-15T05:09:27;6.80;1.00
5218;DHT22;26539;51.064;6.346;2023-04-15T05:11:56;7.00;1.00
5218;DHT22;26539;51.064;6.346;2023-04-15T05:14:25;7.10;1.00
5218;DHT22;26539;51.064;6.346;2023-04-15T05:16:50;7.20;1.00
5218;DHT22;26539;51.064;6.346;2023-04-15T05:19:16;7.40;1.00
5218;DHT22;26539;51.064;6.346;2023-04-15T05:21:42;7.50;1.00
5218;DHT22;26539;51.064;6.346;2023-04-15T05:24:07;7.60;1.00
5218;DHT22;26539;51.064;6.346;2023-04-15T05:26:36;7.80;1.00
5218;DHT22;26539;51.064;6.346;2023-04-15T05:32:37;8.10;1.00
5218;DHT22;26539;51.064;6.346;2023-04-15T05:35:03;8.50;99.90
5218;DHT22;26539;51.064;6.346;2023-04-15T05:37:29;9.00;99.90
5218;DHT22;26539;51.064;6.346;2023-04-15T05:39:54;10.20;99.90
5218;DHT22;26539;51.064;6.346;2023-04-15T05:42:21;11.60;99.90
5218;DHT22;26539;51.064;6.346;2023-04-15T05:44:46;13.10;99.90
5218;DHT22;26539;51.064;6.346;2023-04-15T05:47:12;14.50;99.90
5218;DHT22;26539;51.064;6.346;2023-04-15T05:49:37;15.20;99.90
5218;DHT22;26539;51.064;6.346;2023-04-15T05:52:05;15.60;99.90
5218;DHT22;26539;51.064;6.346;2023-04-15T05:54:31;15.90;99.90
5218;DHT22;26539;51.064;6.346;2023-04-15T05:56:56;16.30;99.90
5218;DHT22;26539;51.064;6.346;2023-04-15T05:59:22;17.20;99.90
5218;DHT22;26539;51.064;6.346;2023-04-15T06:01:48;17.80;99.90
5218;DHT22;26539;51.064;6.346;2023-04-15T06:04:27;18.10;99.90
5218;DHT22;26539;51.064;6.346;2023-04-15T06:07:23;18.90;99.90
5218;DHT22;26539;51.064;6.346;2023-04-15T06:09:56;20.10;99.90
5218;DHT22;26539;51.064;6.346;2023-04-15T06:12:22;22.10;99.90
5218;DHT22;26539;51.064;6.346;2023-04-15T06:14:50;24.30;99.90
5218;DHT22;26539;51.064;6.346;2023-04-15T06:17:33;25.90;99.90
5218;DHT22;26539;51.064;6.346;2023-04-15T06:20:02;27.30;99.90
5218;DHT22;26539;51.064;6.346;2023-04-15T06:22:31;27.60;99.90
5218;DHT22;26539;51.064;6.346;2023-04-15T06:25:05;27.30;99.90
5218;DHT22;26539;51.064;6.346;2023-04-15T06:27:36;26.00;99.90
5218;DHT22;26539;51.064;6.346;2023-04-15T06:30:06;24.80;99.90
5218;DHT22;26539;51.064;6.346;2023-04-15T06:32:33;23.80;99.90
5218;DHT22;26539;51.064;6.346;2023-04-15T06:35:04;24.00;99.90
5218;DHT22;26539;51.064;6.346;2023-04-15T06:37:29;24.60;99.90
5218;DHT22;26539;51.064;6.346;2023-04-15T06:39:55;25.20;99.90
5218;DHT22;26539;51.064;6.346;2023-04-15T06:42:21;24.70;99.90
5218;DHT22;26539;51.064;6.346;2023-04-15T06:44:47;23.50;99.90
5218;DHT22;26539;51.064;6.346;2023-04-15T06:47:13;22.50;99.90
5218;DHT22;26539;51.064;6.346;2023-04-15T06:49:39;21.80;99.90
5218;DHT22;26539;51.064;6.346;2023-04-15T06:52:05;21.10;99.90
5218;DHT22;26539;51.064;6.346;2023-04-15T06:54:30;20.30;99.90
5218;DHT22;26539;51.064;6.346;2023-04-15T06:56:56;19.60;99.90
5218;DHT22;26539;51.064;6.346;2023-04-15T06:59:21;19.30;99.90
5218;DHT22;26539;51.064;6.346;2023-04-15T07:01:50;19.00;99.90
5218;DHT22;26539;51.064;6.346;2023-04-15T07:04:16;18.60;99.90
5218;DHT22;26539;51.064;6.346;2023-04-15T07:06:42;18.50;99.90
5218;DHT22;26539;51.064;6.346;2023-04-15T07:09:07;18.70;99.90
5218;DHT22;26539;51.064;6.346;2023-04-15T07:11:33;18.90;99.90
5218;DHT22;26539;51.064;6.346;2023-04-15T07:13:58;18.70;99.90
5218;DHT22;26539;51.064;6.346;2023-04-15T07:16:24;18.40;99.90
5218;DHT22;26539;51.064;6.346;2023-04-15T07:18:49;18.10;99.90
5218;DHT22;26539;51.064;6.346;2023-04-15T07:21:15;17.80;99.90
5218;DHT22;26539;51.064;6.346;2023-04-15T07:23:41;17.50;99.90
5218;DHT22;26539;51.064;6.346;2023-04-15T07:26:07;17.30;99.90
5218;DHT22;26539;51.064;6.346;2023-04-15T07:28:33;17.20;99.90
5218;DHT22;26539;51.064;6.346;2023-04-15T07:30:58;17.30;99.90
5218;DHT22;26539;51.064;6.346;2023-04-15T07:33:24;17.50;99.90
5218;DHT22;26539;51.064;6.346;2023-04-15T07:35:50;18.00;99.90
5218;DHT22;26539;51.064;6.346;2023-04-15T07:38:16;18.30;99.90
5218;DHT22;26539;51.064;6.346;2023-04-15T07:40:47;18.70;99.90
5218;DHT22;26539;51.064;6.346;2023-04-15T07:43:13;19.40;99.90
5218;DHT22;26539;51.064;6.346;2023-04-15T07:45:39;20.50;99.90
5218;DHT22;26539;51.064;6.346;2023-04-15T07:48:05;21.40;99.90
5218;DHT22;26539;51.064;6.346;2023-04-15T07:50:31;22.30;99.90
5218;DHT22;26539;51.064;6.346;2023-04-15T07:52:56;23.70;99.90
5218;DHT22;26539;51.064;6.346;2023-04-15T07:55:22;24.60;99.90
5218;DHT22;26539;51.064;6.346;2023-04-15T07:57:48;25.20;99.90
5218;DHT22;26539;51.064;6.346;2023-04-15T08:00:14;24.70;99.90
5218;DHT22;26539;51.064;6.346;2023-04-15T08:02:40;24.10;99.90
5218;DHT22;26539;51.064;6.346;2023-04-15T08:05:08;23.90;99.90
5218;DHT22;26539;51.064;6.346;2023-04-15T08:07:33;24.00;99.90
5218;DHT22;26539;51.064;6.346;2023-04-15T08:09:59;24.20;99.90
5218;DHT22;26539;51.064;6.346;2023-04-15T08:12:25;25.00;99.90
5218;DHT22;26539;51.064;6.346;2023-04-15T08:14:50;25.30;99.90
5218;DHT22;26539;51.064;6.346;2023-04-15T08:17:16;25.10;99.90
5218;DHT22;26539;51.064;6.346;2023-04-15T08:19:42;24.80;99.90
5218;DHT22;26539;51.064;6.346;2023-04-15T08:22:07;24.30;99.90
5218;DHT22;26539;51.064;6.346;2023-04-15T08:24:33;23.90;99.90
5218;DHT22;26539;51.064;6.346;2023-04-15T08:26:58;23.80;99.90
5218;DHT22;26539;51.064;6.346;2023-04-15T08:29:24;24.10;99.90
5218;DHT22;26539;51.064;6.346;2023-04-15T08:31:50;24.50;99.90
5218;DHT22;26539;51.064;6.346;2023-04-15T08:34:15;24.70;99.90
5218;DHT22;26539;51.064;6.346;2023-04-15T08:36:41;25.10;99.90
5218;DHT22;26539;51.064;6.346;2023-04-15T08:39:07;25.40;99.90
5218;DHT22;26539;51.064;6.346;2023-04-15T08:41:44;25.10;99.90
5218;DHT22;26539;51.064;6.346;2023-04-15T08:44:12;24.50;99.90
5218;DHT22;26539;51.064;6.346;2023-04-15T08:46:38;24.10;99.90
5218;DHT22;26539;51.064;6.346;2023-04-15T08:49:09;23.90;99.90
5218;DHT22;26539;51.064;6.346;2023-04-15T08:51:35;24.30;99.90
5218;DHT22;26539;51.064;6.346;2023-04-15T08:54:01;24.70;99.90
5218;DHT22;26539;51.064;6.346;2023-04-15T08:56:27;25.40;99.90
5218;DHT22;26539;51.064;6.346;2023-04-15T08:58:55;26.80;99.90
5218;DHT22;26539;51.064;6.346;2023-04-15T09:01:21;27.90;99.90
5218;DHT22;26539;51.064;6.346;2023-04-15T09:03:48;28.80;99.90
5218;DHT22;26539;51.064;6.346;2023-04-15T09:06:16;29.60;99.90
5218;DHT22;26539;51.064;6.346;2023-04-15T09:08:41;30.10;99.90
5218;DHT22;26539;51.064;6.346;2023-04-15T09:11:07;30.30;99.90
5218;DHT22;26539;51.064;6.346;2023-04-15T09:13:33;30.10;99.90
5218;DHT22;26539;51.064;6.346;2023-04-15T09:16:01;29.90;99.90
5218;DHT22;26539;51.064;6.346;2023-04-15T09:18:32;29.70;99.90
5218;DHT22;26539;51.064;6.346;2023-04-15T09:21:05;29.70;99.90
5218;DHT22;26539;51.064;6.346;2023-04-15T09:23:33;29.60;99.90
5218;DHT22;26539;51.064;6.346;2023-04-15T09:26:00;29.50;99.90
5218;DHT22;26539;51.064;6.346;2023-04-15T09:28:25;29.30;99.90
5218;DHT22;26539;51.064;6.346;2023-04-15T09:30:55;29.30;99.90
5218;DHT22;26539;51.064;6.346;2023-04-15T09:33:21;29.40;99.90
5218;DHT22;26539;51.064;6.346;2023-04-15T09:35:57;29.40;99.90
5218;DHT22;26539;51.064;6.346;2023-04-15T09:38:23;29.30;99.90
5218;DHT22;26539;51.064;6.346;2023-04-15T09:40:49;29.30;99.90
5218;DHT22;26539;51.064;6.346;2023-04-15T09:43:14;29.30;99.90
5218;DHT22;26539;51.064;6.346;2023-04-15T09:45:52;29.00;99.90
5218;DHT22;26539;51.064;6.346;2023-04-15T09:48:18;28.40;99.90
5218;DHT22;26539;51.064;6.346;2023-04-15T09:50:48;27.70;99.10
5218;DHT22;26539;51.064;6.346;2023-04-15T09:53:16;27.00;97.60
5218;DHT22;26539;51.064;6.346;2023-04-15T09:56:03;26.30;95.80
5218;DHT22;26539;51.064;6.346;2023-04-15T09:58:33;25.40;93.90
5218;DHT22;26539;51.064;6.346;2023-04-15T10:01:01;25.10;93.40
5218;DHT22;26539;51.064;6.346;2023-04-15T10:03:32;25.00;93.60
5218;DHT22;26539;51.064;6.346;2023-04-15T10:05:59;25.20;94.30
5218;DHT22;26539;51.064;6.346;2023-04-15T10:08:30;25.40;94.30
5218;DHT22;26539;51.064;6.346;2023-04-15T10:10:59;25.40;94.80
5218;DHT22;26539;51.064;6.346;2023-04-15T10:13:29;25.50;94.70
5218;DHT22;26539;51.064;6.346;2023-04-15T10:16:18;25.40;94.50
5218;DHT22;26539;51.064;6.346;2023-04-15T10:18:45;25.30;94.10
5218;DHT22;26539;51.064;6.346;2023-04-15T10:21:12;25.40;94.10
5218;DHT22;26539;51.064;6.346;2023-04-15T10:23:44;25.30;93.70
5218;DHT22;26539;51.064;6.346;2023-04-15T10:26:10;25.30;94.10
5218;DHT22;26539;51.064;6.346;2023-04-15T10:28:37;25.40;94.30
5218;DHT22;26539;51.064;6.346;2023-04-15T10:31:04;25.60;94.80
5218;DHT22;26539;51.064;6.346;2023-04-15T10:33:30;25.60;95.10
5218;DHT22;26539;51.064;6.346;2023-04-15T10:35:56;25.40;94.80
5218;DHT22;26539;51.064;6.346;2023-04-15T10:38:40;25.30;94.10
5218;DHT22;26539;51.064;6.346;2023-04-15T10:41:21;25.10;93.40
5218;DHT22;26539;51.064;6.346;2023-04-15T10:46:38;25.00;93.30
5218;DHT22;26539;51.064;6.346;2023-04-15T10:51:39;25.20;94.30
5218;DHT22;26539;51.064;6.346;2023-04-15T10:54:15;25.20;94.50
5218;DHT22;26539;51.064;6.346;2023-04-15T10:56:43;25.70;95.30
5218;DHT22;26539;51.064;6.346;2023-04-15T10:59:09;26.60;97.40
5218;DHT22;26539;51.064;6.346;2023-04-15T11:02:00;27.30;98.70
5218;DHT22;26539;51.064;6.346;2023-04-15T11:04:57;27.00;98.00
5218;DHT22;26539;51.064;6.346;2023-04-15T11:12:43;27.00;97.40
5218;DHT22;26539;51.064;6.346;2023-04-15T11:15:32;27.40;98.70
5218;DHT22;26539;51.064;6.346;2023-04-15T11:20:40;28.50;99.50
5218;DHT22;26539;51.064;6.346;2023-04-15T11:23:06;29.30;99.90
5218;DHT22;26539;51.064;6.346;2023-04-15T11:25:33;29.30;99.90
5218;DHT22;26539;51.064;6.346;2023-04-15T11:28:00;28.50;99.90
5218;DHT22;26539;51.064;6.346;2023-04-15T11:30:29;27.60;95.40
5218;DHT22;26539;51.064;6.346;2023-04-15T11:32:58;27.10;94.50
5218;DHT22;26539;51.064;6.346;2023-04-15T11:35:24;26.70;93.20
5218;DHT22;26539;51.064;6.346;2023-04-15T11:37:50;26.20;92.10
5218;DHT22;26539;51.064;6.346;2023-04-15T11:40:16;25.80;90.90
5218;DHT22;26539;51.064;6.346;2023-04-15T11:42:46;25.40;90.00
5218;DHT22;26539;51.064;6.346;2023-04-15T11:45:14;25.40;90.20
5218;DHT22;26539;51.064;6.346;2023-04-15T11:47:41;25.50;91.20
5218;DHT22;26539;51.064;6.346;2023-04-15T11:50:20;25.40;91.10
5218;DHT22;26539;51.064;6.346;2023-04-15T11:52:58;25.60;91.80
5218;DHT22;26539;51.064;6.346;2023-04-15T11:55:24;25.40;91.70
5218;DHT22;26539;51.064;6.346;2023-04-15T11:58:11;25.50;92.50
5218;DHT22;26539;51.064;6.346;2023-04-15T12:00:39;25.30;92.10
5218;DHT22;26539;51.064;6.346;2023-04-15T12:03:22;25.50;92.60
5218;DHT22;26539;51.064;6.346;2023-04-15T12:08:48;25.40;92.20
5218;DHT22;26539;51.064;6.346;2023-04-15T12:11:18;24.80;90.70
5218;DHT22;26539;51.064;6.346;2023-04-15T12:13:47;24.60;90.40
5218;DHT22;26539;51.064;6.346;2023-04-15T12:16:20;25.10;92.00
5218;DHT22;26539;51.064;6.346;2023-04-15T12:18:49;25.40;92.70
5218;DHT22;26539;51.064;6.346;2023-04-15T12:21:18;25.10;92.40
5218;DHT22;26539;51.064;6.346;2023-04-15T12:23:51;25.40;93.50
5218;DHT22;26539;51.064;6.346;2023-04-15T12:26:18;25.40;92.70
5218;DHT22;26539;51.064;6.346;2023-04-15T12:29:02;25.60;93.70
5218;DHT22;26539;51.064;6.346;2023-04-15T12:31:28;25.90;94.00
5218;DHT22;26539;51.064;6.346;2023-04-15T12:33:55;25.70;93.50
5218;DHT22;26539;51.064;6.346;2023-04-15T12:36:21;25.80;93.70
5218;DHT22;26539;51.064;6.346;2023-04-15T12:38:47;25.50;93.00
5218;DHT22;26539;51.064;6.346;2023-04-15T12:41:13;25.20;92.50
5218;DHT22;26539;51.064;6.346;2023-04-15T12:43:38;24.70;91.10
5218;DHT22;26539;51.064;6.346;2023-04-15T12:46:04;24.30;99.40
5218;DHT22;26539;51.064;6.346;2023-04-15T12:48:31;23.80;90.10
5218;DHT22;26539;51.064;6.346;2023-04-15T12:50:57;23.50;88.80
5218;DHT22;26539;51.064;6.346;2023-04-15T12:53:22;23.30;89.30
5218;DHT22;26539;51.064;6.346;2023-04-15T12:55:48;23.00;88.10
5218;DHT22;26539;51.064;6.346;2023-04-15T12:58:13;22.60;86.10
5218;DHT22;26539;51.064;6.346;2023-04-15T13:00:39;22.30;85.90
5218;DHT22;26539;51.064;6.346;2023-04-15T13:03:05;22.20;86.50
5218;DHT22;26539;51.064;6.346;2023-04-15T13:05:30;22.00;86.00
5218;DHT22;26539;51.064;6.346;2023-04-15T13:07:56;21.90;87.30
5218;DHT22;26539;51.064;6.346;2023-04-15T13:10:22;22.60;91.30
5218;DHT22;26539;51.064;6.346;2023-04-15T13:12:51;23.10;92.80
5218;DHT22;26539;51.064;6.346;2023-04-15T13:15:18;23.50;93.70
5218;DHT22;26539;51.064;6.346;2023-04-15T13:17:45;23.60;94.10
5218;DHT22;26539;51.064;6.346;2023-04-15T13:20:11;23.10;92.30
5218;DHT22;26539;51.064;6.346;2023-04-15T13:22:36;22.60;91.00
5218;DHT22;26539;51.064;6.346;2023-04-15T13:25:02;22.20;90.70
5218;DHT22;26539;51.064;6.346;2023-04-15T13:27:28;21.70;89.60
5218;DHT22;26539;51.064;6.346;2023-04-15T13:29:54;21.30;87.60
5218;DHT22;26539;51.064;6.346;2023-04-15T13:32:19;20.90;86.50
5218;DHT22;26539;51.064;6.346;2023-04-15T13:34:45;20.60;86.90
5218;DHT22;26539;51.064;6.346;2023-04-15T13:37:10;20.50;87.30
5218;DHT22;26539;51.064;6.346;2023-04-15T13:39:36;20.50;88.50
5218;DHT22;26539;51.064;6.346;2023-04-15T13:42:01;20.40;89.50
5218;DHT22;26539;51.064;6.346;2023-04-15T13:44:28;20.40;89.80
5218;DHT22;26539;51.064;6.346;2023-04-15T13:46:53;20.40;90.30
5218;DHT22;26539;51.064;6.346;2023-04-15T13:49:19;20.30;90.90
5218;DHT22;26539;51.064;6.346;2023-04-15T13:51:44;20.20;90.40
5218;DHT22;26539;51.064;6.346;2023-04-15T13:54:10;20.20;90.90
5218;DHT22;26539;51.064;6.346;2023-04-15T13:56:35;20.20;91.30
5218;DHT22;26539;51.064;6.346;2023-04-15T13:59:01;20.20;92.10
5218;DHT22;26539;51.064;6.346;2023-04-15T14:01:28;20.20;92.80
5218;DHT22;26539;51.064;6.346;2023-04-15T14:03:53;20.20;92.80
5218;DHT22;26539;51.064;6.346;2023-04-15T14:06:19;20.20;93.10
5218;DHT22;26539;51.064;6.346;2023-04-15T14:08:47;20.10;93.50
5218;DHT22;26539;51.064;6.346;2023-04-15T14:11:12;20.20;94.00
5218;DHT22;26539;51.064;6.346;2023-04-15T14:13:38;20.20;95.20
5218;DHT22;26539;51.064;6.346;2023-04-15T14:16:04;20.30;95.10
5218;DHT22;26539;51.064;6.346;2023-04-15T14:18:30;20.40;95.50
5218;DHT22;26539;51.064;6.346;2023-04-15T14:20:55;20.30;95.50
5218;DHT22;26539;51.064;6.346;2023-04-15T14:23:22;20.10;95.60
5218;DHT22;26539;51.064;6.346;2023-04-15T14:25:47;20.00;95.40
5218;DHT22;26539;51.064;6.346;2023-04-15T14:28:13;19.80;95.30
5218;DHT22;26539;51.064;6.346;2023-04-15T14:30:39;19.80;95.50
5218;DHT22;26539;51.064;6.346;2023-04-15T14:33:07;19.80;96.20
5218;DHT22;26539;51.064;6.346;2023-04-15T14:35:33;19.80;96.40
5218;DHT22;26539;51.064;6.346;2023-04-15T14:37:58;19.90;97.00
5218;DHT22;26539;51.064;6.346;2023-04-15T14:40:24;20.00;97.20
5218;DHT22;26539;51.064;6.346;2023-04-15T14:42:50;19.90;97.30
5218;DHT22;26539;51.064;6.346;2023-04-15T14:45:15;19.80;97.70
5218;DHT22;26539;51.064;6.346;2023-04-15T14:47:42;19.60;97.30
5218;DHT22;26539;51.064;6.346;2023-04-15T14:50:08;19.60;97.40
5218;DHT22;26539;51.064;6.346;2023-04-15T14:52:33;19.50;97.60
5218;DHT22;26539;51.064;6.346;2023-04-15T14:55:12;19.30;97.70
5218;DHT22;26539;51.064;6.346;2023-04-15T14:57:39;19.30;97.90
5218;DHT22;26539;51.064;6.346;2023-04-15T15:00:06;19.20;98.10
5218;DHT22;26539;51.064;6.346;2023-04-15T15:02:33;19.10;98.60
5218;DHT22;26539;51.064;6.346;2023-04-15T15:05:00;19.00;98.60
5218;DHT22;26539;51.064;6.346;2023-04-15T15:07:25;19.00;98.80
5218;DHT22;26539;51.064;6.346;2023-04-15T15:09:51;18.90;98.50
5218;DHT22;26539;51.064;6.346;2023-04-15T15:12:17;19.00;99.10
5218;DHT22;26539;51.064;6.346;2023-04-15T15:14:45;19.10;99.80
5218;DHT22;26539;51.064;6.346;2023-04-15T15:17:10;19.30;99.90
5218;DHT22;26539;51.064;6.346;2023-04-15T15:19:36;19.50;99.90
5218;DHT22;26539;51.064;6.346;2023-04-15T15:22:02;19.70;99.90
5218;DHT22;26539;51.064;6.346;2023-04-15T15:24:28;19.70;99.90
5218;DHT22;26539;51.064;6.346;2023-04-15T15:26:54;19.80;99.90
5218;DHT22;26539;51.064;6.346;2023-04-15T15:29:19;19.70;99.90
5218;DHT22;26539;51.064;6.346;2023-04-15T15:31:45;19.60;99.90
5218;DHT22;26539;51.064;6.346;2023-04-15T15:34:10;19.60;99.90
5218;DHT22;26539;51.064;6.346;2023-04-15T15:37:18;19.50;99.90
5218;DHT22;26539;51.064;6.346;2023-04-15T15:39:42;19.50;99.90
5218;DHT22;26539;51.064;6.346;2023-04-15T15:42:08;19.40;99.90
5218;DHT22;26539;51.064;6.346;2023-04-15T15:44:33;19.30;99.90
5218;DHT22;26539;51.064;6.346;2023-04-15T15:47:00;19.20;99.90
5218;DHT22;26539;51.064;6.346;2023-04-15T15:49:27;19.20;99.90
5218;DHT22;26539;51.064;6.346;2023-04-15T15:51:52;19.20;99.90
5218;DHT22;26539;51.064;6.346;2023-04-15T15:54:18;19.20;99.90
5218;DHT22;26539;51.064;6.346;2023-04-15T15:56:43;19.20;99.90
5218;DHT22;26539;51.064;6.346;2023-04-15T15:59:09;19.10;99.90
5218;DHT22;26539;51.064;6.346;2023-04-15T16:01:34;19.10;99.90
5218;DHT22;26539;51.064;6.346;2023-04-15T16:04:00;19.00;99.90
5218;DHT22;26539;51.064;6.346;2023-04-15T16:06:25;19.00;99.90
5218;DHT22;26539;51.064;6.346;2023-04-15T16:08:51;19.00;99.90
5218;DHT22;26539;51.064;6.346;2023-04-15T16:11:17;18.90;99.90
5218;DHT22;26539;51.064;6.346;2023-04-15T16:13:42;18.90;99.90